createdAt,value
2023-02-22T00:00:43.023Z,-23413.25
2023-02-22T00:02:46.561Z,-23412.47
2023-02-22T00:04:49.192Z,-23410.72
2023-02-22T00:06:51.879Z,-23410.25
2023-02-22T00:08:55.629Z,-23408.81
2023-02-22T00:10:58.556Z,-23409.59
2023-02-22T00:13:01.150Z,-23412.63
2023-02-22T00:15:03.884Z,-23408.16
2023-02-22T00:17:07.963Z,-23404.34
2023-02-22T00:19:10.610Z,-23402.63
2023-02-22T00:21:15.028Z,-23402.28
2023-02-22T00:23:19.967Z,-23401.81
2023-02-22T00:25:25.253Z,-23400.06
2023-02-22T00:27:27.994Z,-23400.53
2023-02-22T00:29:30.628Z,-23398.31
2023-02-22T00:31:39.260Z,-23398.31
2023-02-22T00:33:43.733Z,-23399.75
2023-02-22T00:35:47.061Z,-23400.06
2023-02-22T00:37:50.957Z,-23398.00
2023-02-22T00:39:53.578Z,-23395.31
2023-02-22T00:41:56.249Z,-23388.47
2023-02-22T00:43:58.967Z,-23391.66
2023-02-22T00:46:01.925Z,-23390.06
2023-02-22T00:48:06.275Z,-23389.44
2023-02-22T00:50:11.005Z,-23389.75
2023-02-22T00:52:13.618Z,-23387.03
2023-02-22T00:54:18.418Z,-23388.31
2023-02-22T00:56:21.159Z,-23387.34
2023-02-22T00:58:24.326Z,-23385.59
2023-02-22T01:00:28.874Z,-23382.44
2023-02-22T01:02:31.505Z,-23376.41
2023-02-22T01:04:34.136Z,-23376.56
2023-02-22T01:06:38.198Z,-23378.63
2023-02-22T01:08:45.324Z,-23380.38
2023-02-22T01:10:48.169Z,-23387.53
2023-02-22T01:12:50.969Z,-23379.25
2023-02-22T01:14:56.907Z,-23378.31
2023-02-22T01:16:59.583Z,-23379.41
2023-02-22T01:19:02.420Z,-23380.69
2023-02-22T01:21:06.185Z,-23374.00
2023-02-22T01:23:10.653Z,-23372.72
2023-02-22T01:25:17.542Z,-23370.66
2023-02-22T01:27:20.051Z,-23369.41
2023-02-22T01:29:22.721Z,-23367.66
2023-02-22T01:31:25.485Z,-23364.16
2023-02-22T01:33:28.336Z,-23361.75
2023-02-22T01:35:34.230Z,-23363.34
2023-02-22T01:37:37.145Z,-23364.16
2023-02-22T01:39:41.206Z,-23364.78
2023-02-22T01:41:43.858Z,-23364.78
2023-02-22T01:43:46.611Z,-23363.03
2023-02-22T01:45:55.450Z,-23358.59
2023-02-22T01:47:59.740Z,-23358.09
2023-02-22T01:50:02.864Z,-23359.22
2023-02-22T01:52:09.677Z,-23357.16
2023-02-22T01:54:16.006Z,-23354.13
2023-02-22T01:56:21.747Z,-23353.19
2023-02-22T01:58:27.180Z,-23353.81
2023-02-22T02:00:30.694Z,-23350.94
2023-02-22T02:02:33.326Z,-23350.47
2023-02-22T02:04:37.169Z,-23353.81
2023-02-22T02:06:42.182Z,-23348.41
2023-02-22T02:08:54.069Z,-23345.06
2023-02-22T02:10:57.978Z,-23346.97
2023-02-22T02:13:04.000Z,-23344.91
2023-02-22T02:15:26.226Z,-23343.00
2023-02-22T02:17:28.860Z,-23344.25
2023-02-22T02:19:41.773Z,-23346.66
2023-02-22T02:22:08.866Z,-23339.81
2023-02-22T02:24:39.544Z,-23335.66
2023-02-22T02:27:04.063Z,-23334.56
2023-02-22T02:29:40.769Z,-23329.63
2023-02-22T02:32:20.016Z,-23328.81
2023-02-22T02:34:32.834Z,-23327.38
2023-02-22T02:36:41.432Z,-23327.06
2023-02-22T02:38:48.738Z,-23326.75
2023-02-22T02:41:00.098Z,-23327.38
2023-02-22T02:43:09.204Z,-23324.84
2023-02-22T02:45:16.979Z,-23329.16
2023-02-22T02:47:25.132Z,-23321.97
2023-02-22T02:49:31.989Z,-23313.69
2023-02-22T02:51:36.860Z,-23312.59
2023-02-22T02:53:43.881Z,-23317.53
2023-02-22T02:55:46.576Z,-23318.16
2023-02-22T02:57:49.204Z,-23321.97
2023-02-22T02:59:52.440Z,-23316.56
2023-02-22T03:02:05.854Z,-23312.91
2023-02-22T03:04:31.089Z,-23311.47
2023-02-22T03:06:57.994Z,-23316.88
2023-02-22T03:09:07.680Z,-23316.09
2023-02-22T03:11:16.229Z,-23311.47
2023-02-22T03:13:31.949Z,-23314.66
2023-02-22T03:15:45.185Z,-23312.44
2023-02-22T03:17:55.164Z,-23313.06
2023-02-22T03:20:09.683Z,-23310.50
2023-02-22T03:22:18.508Z,-23304.31
2023-02-22T03:24:27.167Z,-23300.81
2023-02-22T03:26:35.492Z,-23301.28
2023-02-22T03:28:41.056Z,-23305.75
2023-02-22T03:30:47.709Z,-23306.06
2023-02-22T03:32:53.531Z,-23300.63
2023-02-22T03:35:02.497Z,-23297.47
2023-02-22T03:37:09.308Z,-23296.81
2023-02-22T03:39:16.039Z,-23295.69
2023-02-22T03:41:24.022Z,-23295.53
2023-02-22T03:43:31.305Z,-23294.28
2023-02-22T03:45:35.785Z,-23295.53
2023-02-22T03:47:42.031Z,-23296.19
2023-02-22T03:49:50.590Z,-23293.16
2023-02-22T03:51:54.739Z,-23292.03
2023-02-22T03:53:57.695Z,-23291.72
2023-02-22T03:56:01.733Z,-23292.19
2023-02-22T03:58:10.321Z,-23292.34
2023-02-22T04:00:17.932Z,-23294.59
2023-02-22T04:02:20.575Z,-23292.34
2023-02-22T04:04:24.760Z,-23292.03
2023-02-22T04:06:27.612Z,-23290.44
2023-02-22T04:08:31.576Z,-23289.19
2023-02-22T04:10:34.379Z,-23288.84
2023-02-22T04:12:37.178Z,-23289.66
2023-02-22T04:14:39.844Z,-23286.78
2023-02-22T04:16:42.451Z,-23286.63
2023-02-22T04:18:45.097Z,-23289.50
2023-02-22T04:20:47.761Z,-23284.72
2023-02-22T04:22:50.378Z,-23283.44
2023-02-22T04:24:54.460Z,-23284.22
2023-02-22T04:26:57.089Z,-23287.75
2023-02-22T04:28:59.686Z,-23283.13
2023-02-22T04:31:02.360Z,-23285.34
2023-02-22T04:33:05.170Z,-23283.28
2023-02-22T04:35:08.865Z,-23283.75
2023-02-22T04:37:12.302Z,-23282.81
2023-02-22T04:39:15.064Z,-23282.00
2023-02-22T04:41:20.487Z,-23281.19
2023-02-22T04:43:23.617Z,-23278.34
2023-02-22T04:45:26.269Z,-23278.97
2023-02-22T04:47:28.856Z,-23275.16
2023-02-22T04:49:31.509Z,-23275.31
2023-02-22T04:51:35.662Z,-23273.72
2023-02-22T04:53:38.313Z,-23274.34
2023-02-22T04:55:41.003Z,-23273.88
2023-02-22T04:57:44.964Z,-23275.47
2023-02-22T04:59:47.663Z,-23278.03
2023-02-22T05:01:51.782Z,-23276.09
2023-02-22T05:03:54.436Z,-23277.69
2023-02-22T05:05:57.091Z,-23275.78
2023-02-22T05:07:59.773Z,-23278.34
2023-02-22T05:10:03.864Z,-23277.22
2023-02-22T05:12:07.047Z,-23277.38
2023-02-22T05:14:11.178Z,-23278.81
2023-02-22T05:16:14.165Z,-23279.44
2023-02-22T05:18:16.945Z,-23276.09
2023-02-22T05:20:24.240Z,-23274.50
2023-02-22T05:22:26.929Z,-23275.00
2023-02-22T05:24:29.561Z,-23276.59
2023-02-22T05:26:32.240Z,-23275.94
2023-02-22T05:28:35.007Z,-23274.19
2023-02-22T05:30:40.197Z,-23273.88
2023-02-22T05:32:42.791Z,-23274.50
2023-02-22T05:34:45.583Z,-23276.25
2023-02-22T05:36:48.181Z,-23275.47
2023-02-22T05:38:50.785Z,-23275.78
2023-02-22T05:40:53.393Z,-23275.31
2023-02-22T05:42:56.714Z,-23274.50
2023-02-22T05:45:00.142Z,-23275.78
2023-02-22T05:47:04.551Z,-23275.63
2023-02-22T05:49:07.227Z,-23274.03
2023-02-22T05:51:10.707Z,-23274.34
2023-02-22T05:53:13.378Z,-23277.69
2023-02-22T05:55:18.307Z,-23281.53
2023-02-22T05:57:21.048Z,-23283.44
2023-02-22T05:59:23.686Z,-23287.25
2023-02-22T06:01:27.082Z,-23285.97
2023-02-22T06:03:31.054Z,-23285.66
2023-02-22T06:05:34.023Z,-23288.06
2023-02-22T06:07:37.013Z,-23286.63
2023-02-22T06:09:39.846Z,-23281.53
2023-02-22T06:11:42.584Z,-23276.09
2023-02-22T06:13:51.058Z,-23279.44
2023-02-22T06:15:53.742Z,-23279.13
2023-02-22T06:17:57.788Z,-23279.13
2023-02-22T06:20:01.798Z,-23278.97
2023-02-22T06:22:05.118Z,-23278.81
2023-02-22T06:24:08.281Z,-23279.94
2023-02-22T06:26:10.956Z,-23280.88
2023-02-22T06:28:14.320Z,-23282.47
2023-02-22T06:30:18.948Z,-23284.72
2023-02-22T06:32:21.589Z,-23285.97
2023-02-22T06:34:24.299Z,-23288.38
2023-02-22T06:36:28.314Z,-23289.97
2023-02-22T06:38:30.974Z,-23290.94
2023-02-22T06:40:33.567Z,-23291.09
2023-02-22T06:42:36.173Z,-23293.63
2023-02-22T06:44:38.819Z,-23299.53
2023-02-22T06:46:47.561Z,-23299.22
2023-02-22T06:48:51.805Z,-23300.00
2023-02-22T06:50:54.389Z,-23300.63
2023-02-22T06:52:59.233Z,-23301.28
2023-02-22T06:55:01.832Z,-23303.50
2023-02-22T06:57:04.461Z,-23303.50
2023-02-22T06:59:08.354Z,-23306.06
2023-02-22T07:01:10.956Z,-23308.75
2023-02-22T07:03:14.307Z,-23308.91
2023-02-22T07:05:18.419Z,-23313.53
2023-02-22T07:07:25.094Z,-23319.44
2023-02-22T07:09:29.026Z,-23323.56
2023-02-22T07:11:31.772Z,-23324.22
2023-02-22T07:13:34.389Z,-23325.16
2023-02-22T07:15:37.352Z,-23323.25
2023-02-22T07:17:41.149Z,-23326.44
2023-02-22T07:19:43.787Z,-23328.97
2023-02-22T07:21:47.938Z,-23335.03
2023-02-22T07:23:54.255Z,-23336.94
2023-02-22T07:26:00.694Z,-23339.16
2023-02-22T07:28:03.366Z,-23347.13
2023-02-22T07:30:08.286Z,-23345.84
2023-02-22T07:32:11.317Z,-23354.59
2023-02-22T07:34:14.286Z,-23359.53
2023-02-22T07:36:18.026Z,-23364.94
2023-02-22T07:38:21.329Z,-23362.06
2023-02-22T07:40:24.707Z,-23370.03
2023-02-22T07:42:28.688Z,-23365.91
2023-02-22T07:44:31.284Z,-23374.16
2023-02-22T07:46:33.884Z,-23376.22
2023-02-22T07:48:36.594Z,-23385.28
2023-02-22T07:50:40.249Z,-23385.94
2023-02-22T07:52:46.459Z,-23394.19
2023-02-22T07:54:49.162Z,-23396.41
2023-02-22T07:56:51.773Z,-23403.56
2023-02-22T07:58:55.746Z,-23416.09
2023-02-22T08:00:58.942Z,-23423.72
2023-02-22T08:03:02.777Z,-23426.44
2023-02-22T08:05:07.146Z,-23437.88
2023-02-22T08:07:09.749Z,-23454.53
2023-02-22T08:09:12.375Z,-23463.41
2023-02-22T08:11:15.278Z,-23470.88
2023-02-22T08:13:19.028Z,-23490.22
2023-02-22T08:15:25.275Z,-23500.19
2023-02-22T08:17:27.837Z,-23507.00
2023-02-22T08:19:30.477Z,-23513.34
2023-02-22T08:21:33.088Z,-23552.44
2023-02-22T08:23:35.771Z,-23562.56
2023-02-22T08:25:38.545Z,-23545.31
2023-02-22T08:27:41.183Z,-23546.75
2023-02-22T08:29:43.822Z,-23559.06
2023-02-22T08:31:54.049Z,-23556.53
2023-02-22T08:33:57.053Z,-23564.13
2023-02-22T08:35:59.666Z,-23603.50
2023-02-22T08:38:04.357Z,-23582.16
2023-02-22T08:40:07.800Z,-23570.00
2023-02-22T08:42:10.676Z,-23592.91
2023-02-22T08:44:13.265Z,-23569.84
2023-02-22T08:46:17.648Z,-23584.69
2023-02-22T08:48:22.448Z,-23536.59
2023-02-22T08:50:27.620Z,-23516.97
2023-02-22T08:52:30.278Z,-23516.19
2023-02-22T08:54:32.855Z,-23546.91
2023-02-22T08:56:35.561Z,-23533.44
2023-02-22T08:58:38.186Z,-23553.69
2023-02-22T09:00:43.182Z,-23539.16
2023-02-22T09:02:46.306Z,-23529.34
2023-02-22T09:04:50.719Z,-23582.31
2023-02-22T09:06:53.351Z,-23551.16
2023-02-22T09:08:55.989Z,-23549.44
2023-02-22T09:10:58.583Z,-23537.25
2023-02-22T09:13:02.568Z,-23547.69
2023-02-22T09:15:05.539Z,-23579.31
2023-02-22T09:17:08.160Z,-23566.81
2023-02-22T09:19:10.839Z,-23562.56
2023-02-22T09:21:15.076Z,-23584.06
2023-02-22T09:23:18.734Z,-23640.28
2023-02-22T09:25:23.343Z,-23676.56
2023-02-22T09:27:28.278Z,-23680.00
2023-02-22T09:29:31.865Z,-23716.41
2023-02-22T09:31:36.516Z,-23728.19
2023-02-22T09:33:39.301Z,-23766.09
2023-02-22T09:35:46.281Z,-23673.41
2023-02-22T09:37:50.449Z,-23652.59
2023-02-22T09:39:53.173Z,-23625.59
2023-02-22T09:42:04.531Z,-23561.59
2023-02-22T09:44:17.557Z,-23595.75
2023-02-22T09:46:27.600Z,-23553.84
2023-02-22T09:48:32.764Z,-23550.38
2023-02-22T09:50:39.175Z,-23585.16
2023-02-22T09:52:44.810Z,-23567.78
2023-02-22T09:54:53.674Z,-23571.41
2023-02-22T09:56:58.949Z,-23573.00
2023-02-22T09:59:04.644Z,-23557.50
2023-02-22T10:01:22.931Z,-23574.56
2023-02-22T10:03:29.320Z,-23578.38
2023-02-22T10:05:37.523Z,-23562.88
2023-02-22T10:07:46.349Z,-23584.22
2023-02-22T10:09:51.302Z,-23576.00
2023-02-22T10:11:59.981Z,-23568.56
2023-02-22T10:14:10.819Z,-23570.00
2023-02-22T10:16:22.285Z,-23597.50
2023-02-22T10:19:00.196Z,-23607.13
2023-02-22T10:21:11.915Z,-23585.97
2023-02-22T10:23:24.326Z,-23574.56
2023-02-22T10:25:34.885Z,-23598.44
2023-02-22T10:27:41.121Z,-23646.75
2023-02-22T10:29:47.073Z,-23628.44
2023-02-22T10:31:56.982Z,-23629.38
2023-02-22T10:34:02.818Z,-23580.09
2023-02-22T10:36:06.243Z,-23587.53
2023-02-22T10:38:17.637Z,-23587.22
2023-02-22T10:40:31.826Z,-23609.97
2023-02-22T10:42:35.808Z,-23584.53
2023-02-22T10:44:40.337Z,-23582.78
2023-02-22T10:46:44.631Z,-23589.13
2023-02-22T10:48:51.430Z,-23601.13
2023-02-22T10:50:58.290Z,-23578.84
2023-02-22T10:53:00.897Z,-23566.66
2023-02-22T10:55:15.299Z,-23579.31
2023-02-22T10:57:22.020Z,-23588.16
2023-02-22T10:59:32.763Z,-23578.69
2023-02-22T11:01:40.742Z,-23588.97
2023-02-22T11:03:45.637Z,-23567.16
2023-02-22T11:05:49.356Z,-23570.16
2023-02-22T11:07:54.444Z,-23571.72
2023-02-22T11:09:59.413Z,-23573.63
2023-02-22T11:12:17.356Z,-23572.69
2023-02-22T11:14:27.974Z,-23584.84
2023-02-22T11:16:36.196Z,-23589.75
2023-02-22T11:18:39.185Z,-23578.38
2023-02-22T11:20:41.791Z,-23573.00
2023-02-22T11:22:44.554Z,-23568.88
2023-02-22T11:24:50.689Z,-23563.66
2023-02-22T11:26:57.489Z,-23574.72
2023-02-22T11:29:01.596Z,-23587.22
2023-02-22T11:31:15.911Z,-23586.91
2023-02-22T11:33:23.776Z,-23573.47
2023-02-22T11:35:39.434Z,-23579.47
2023-02-22T11:37:42.287Z,-23576.16
2023-02-22T11:39:45.631Z,-23577.72
2023-02-22T11:41:49.950Z,-23579.31
2023-02-22T11:43:54.348Z,-23570.94
2023-02-22T11:46:02.409Z,-23562.88
2023-02-22T11:48:08.840Z,-23562.56
2023-02-22T11:50:22.155Z,-23569.34
2023-02-22T11:52:32.556Z,-23589.13
2023-02-22T11:54:53.175Z,-23578.38
2023-02-22T11:57:07.969Z,-23570.78
2023-02-22T11:59:25.069Z,-23568.41
2023-02-22T12:01:34.387Z,-23572.84
2023-02-22T12:04:00.532Z,-23563.19
2023-02-22T12:06:20.649Z,-23575.53
2023-02-22T12:08:31.264Z,-23561.59
2023-02-22T12:10:48.976Z,-23566.19
2023-02-22T12:13:09.662Z,-23566.97
2023-02-22T12:15:29.770Z,-23572.69
2023-02-22T12:17:59.405Z,-23561.44
2023-02-22T12:20:09.822Z,-23561.59
2023-02-22T12:22:19.340Z,-23560.03
2023-02-22T12:24:25.160Z,-23560.97
2023-02-22T12:26:32.052Z,-23561.13
2023-02-22T12:28:39.129Z,-23568.88
2023-02-22T12:30:46.391Z,-23575.38
2023-02-22T12:32:52.463Z,-23567.78
2023-02-22T12:34:59.928Z,-23573.16
2023-02-22T12:37:11.325Z,-23566.81
2023-02-22T12:39:40.853Z,-23578.53
2023-02-22T12:41:52.842Z,-23570.78
2023-02-22T12:44:00.978Z,-23565.56
2023-02-22T12:46:08.349Z,-23566.66
2023-02-22T12:48:31.521Z,-23578.69
2023-02-22T12:50:36.467Z,-23574.88
2023-02-22T12:52:45.826Z,-23577.25
2023-02-22T12:54:57.427Z,-23570.78
2023-02-22T12:57:04.338Z,-23576.47
2023-02-22T12:59:13.273Z,-23569.03
2023-02-22T13:01:20.361Z,-23567.16
2023-02-22T13:03:32.619Z,-23574.56
2023-02-22T13:05:39.331Z,-23575.53
2023-02-22T13:07:49.890Z,-23583.28
2023-02-22T13:10:14.372Z,-23581.84
2023-02-22T13:12:24.195Z,-23588.50
2023-02-22T13:14:43.370Z,-23590.22
2023-02-22T13:16:52.815Z,-23598.75
2023-02-22T13:19:04.494Z,-23594.50
2023-02-22T13:21:16.780Z,-23603.66
2023-02-22T13:23:26.119Z,-23613.13
2023-02-22T13:25:38.461Z,-23632.38
2023-02-22T13:27:44.119Z,-23624.19
2023-02-22T13:29:52.028Z,-23610.59
2023-02-22T13:32:17.037Z,-23620.25
2023-02-22T13:34:40.033Z,-23621.34
2023-02-22T13:37:00.832Z,-23611.88
2023-02-22T13:39:27.894Z,-23623.88
2023-02-22T13:42:01.213Z,-23592.28
2023-02-22T13:44:26.758Z,-23610.59
2023-02-22T13:47:05.128Z,-23599.06
2023-02-22T13:49:53.697Z,-23602.06
2023-02-22T13:52:00.004Z,-23608.22
2023-02-22T13:54:07.404Z,-23600.97
2023-02-22T13:56:11.252Z,-23600.50
2023-02-22T13:58:15.433Z,-23582.78
2023-02-22T14:00:40.666Z,-23593.22
2023-02-22T14:03:00.948Z,-23590.69
2023-02-22T14:05:38.094Z,-23593.22
2023-02-22T14:07:49.858Z,-23599.22
2023-02-22T14:09:56.026Z,-23582.78
2023-02-22T14:11:59.245Z,-23579.00
2023-02-22T14:14:17.750Z,-23579.47
2023-02-22T14:16:25.646Z,-23582.47
2023-02-22T14:18:30.508Z,-23573.00
2023-02-22T14:20:36.493Z,-23577.25
2023-02-22T14:22:39.369Z,-23579.47
2023-02-22T14:24:45.254Z,-23574.56
2023-02-22T14:26:57.698Z,-23581.84
2023-02-22T14:29:02.724Z,-23579.63
2023-02-22T14:31:09.737Z,-23591.00
2023-02-22T14:33:49.771Z,-23584.06
2023-02-22T14:35:52.870Z,-23588.31
2023-02-22T14:37:58.648Z,-23585.97
2023-02-22T14:40:12.775Z,-23581.22
2023-02-22T14:42:20.373Z,-23580.59
2023-02-22T14:44:28.824Z,-23581.22
2023-02-22T14:46:40.494Z,-23592.59
2023-02-22T14:48:47.626Z,-23577.91
2023-02-22T14:50:55.628Z,-23577.09
2023-02-22T14:53:02.661Z,-23577.41
2023-02-22T14:55:14.590Z,-23574.56
2023-02-22T14:57:24.465Z,-23572.53
2023-02-22T14:59:28.554Z,-23578.22
2023-02-22T15:01:48.906Z,-23572.53
2023-02-22T15:04:07.008Z,-23575.84
2023-02-22T15:06:16.105Z,-23570.78
2023-02-22T15:08:27.968Z,-23571.09
2023-02-22T15:10:32.363Z,-23579.31
2023-02-22T15:12:36.016Z,-23573.63
2023-02-22T15:14:40.588Z,-23576.63
2023-02-22T15:16:50.265Z,-23572.69
2023-02-22T15:18:56.526Z,-23569.19
2023-02-22T15:21:06.884Z,-23566.81
2023-02-22T15:23:10.130Z,-23572.03
2023-02-22T15:25:13.029Z,-23574.88
2023-02-22T15:27:19.465Z,-23575.84
2023-02-22T15:29:25.074Z,-23569.50
2023-02-22T15:31:32.349Z,-23572.03
2023-02-22T15:33:38.061Z,-23564.94
2023-02-22T15:35:40.729Z,-23563.50
2023-02-22T15:37:44.389Z,-23562.25
2023-02-22T15:39:47.033Z,-23561.94
2023-02-22T15:41:49.610Z,-23562.25
2023-02-22T15:44:07.893Z,-23563.19
2023-02-22T15:46:16.741Z,-23566.19
2023-02-22T15:48:19.509Z,-23566.03
2023-02-22T15:50:25.984Z,-23566.66
2023-02-22T15:52:29.139Z,-23557.66
2023-02-22T15:54:42.106Z,-23560.34
2023-02-22T15:56:50.097Z,-23559.06
2023-02-22T15:58:53.213Z,-23554.81
2023-02-22T16:01:02.152Z,-23556.38
2023-02-22T16:03:06.301Z,-23551.16
2023-02-22T16:05:12.719Z,-23553.53
2023-02-22T16:07:17.727Z,-23552.91
2023-02-22T16:09:25.983Z,-23550.22
2023-02-22T16:11:33.672Z,-23550.84
2023-02-22T16:13:36.880Z,-23557.81
2023-02-22T16:15:39.538Z,-23547.84
2023-02-22T16:17:55.976Z,-23543.41
2023-02-22T16:20:36.146Z,-23545.63
2023-02-22T16:22:40.456Z,-23546.59
2023-02-22T16:24:43.078Z,-23542.94
2023-02-22T16:27:04.465Z,-23542.31
2023-02-22T16:29:09.559Z,-23540.88
2023-02-22T16:31:12.355Z,-23537.88
2023-02-22T16:33:16.535Z,-23539.16
2023-02-22T16:35:19.392Z,-23541.34
2023-02-22T16:37:24.409Z,-23540.88
2023-02-22T16:39:29.451Z,-23544.53
2023-02-22T16:41:32.147Z,-23536.13
2023-02-22T16:43:35.547Z,-23534.56
2023-02-22T16:45:41.274Z,-23534.56
2023-02-22T16:47:44.929Z,-23530.59
2023-02-22T16:49:52.708Z,-23532.19
2023-02-22T16:51:59.591Z,-23530.91
2023-02-22T16:54:03.684Z,-23532.34
2023-02-22T16:56:11.668Z,-23531.84
2023-02-22T16:58:15.809Z,-23530.75
2023-02-22T17:00:21.758Z,-23528.69
2023-02-22T17:02:24.515Z,-23528.06
2023-02-22T17:04:29.159Z,-23529.66
2023-02-22T17:06:32.557Z,-23527.13
2023-02-22T17:08:35.160Z,-23526.78
2023-02-22T17:10:39.198Z,-23526.63
2023-02-22T17:12:43.893Z,-23524.56
2023-02-22T17:14:47.472Z,-23524.56
2023-02-22T17:16:50.478Z,-23524.91
2023-02-22T17:18:53.448Z,-23523.16
2023-02-22T17:20:56.165Z,-23521.41
2023-02-22T17:23:00.030Z,-23521.41
2023-02-22T17:25:05.284Z,-23521.09
2023-02-22T17:27:10.577Z,-23517.13
2023-02-22T17:29:15.290Z,-23513.81
2023-02-22T17:31:21.971Z,-23511.91
2023-02-22T17:33:26.786Z,-23512.06
2023-02-22T17:35:30.636Z,-23510.81
2023-02-22T17:37:33.261Z,-23509.06
2023-02-22T17:39:35.838Z,-23510.97
2023-02-22T17:41:40.470Z,-23507.16
2023-02-22T17:43:44.566Z,-23506.69
2023-02-22T17:45:48.141Z,-23508.44
2023-02-22T17:47:52.324Z,-23507.16
2023-02-22T17:49:55.210Z,-23506.53
2023-02-22T17:51:58.073Z,-23506.84
2023-02-22T17:54:00.899Z,-23503.03
2023-02-22T17:56:07.677Z,-23502.09
2023-02-22T17:58:14.559Z,-23501.47
2023-02-22T18:00:23.384Z,-23499.88
2023-02-22T18:02:26.170Z,-23500.81
2023-02-22T18:04:28.963Z,-23499.72
2023-02-22T18:06:32.845Z,-23497.34
2023-02-22T18:08:35.601Z,-23497.03
2023-02-22T18:10:38.474Z,-23497.66
2023-02-22T18:12:41.570Z,-23492.25
2023-02-22T18:14:44.267Z,-23491.31
2023-02-22T18:16:49.184Z,-23492.91
2023-02-22T18:18:51.881Z,-23494.16
2023-02-22T18:20:59.304Z,-23492.44
2023-02-22T18:23:01.999Z,-23490.22
2023-02-22T18:25:04.977Z,-23490.69
2023-02-22T18:27:07.602Z,-23492.09
2023-02-22T18:29:12.304Z,-23490.03
2023-02-22T18:31:16.956Z,-23486.88
2023-02-22T18:33:21.331Z,-23486.88
2023-02-22T18:35:23.994Z,-23485.59
2023-02-22T18:37:28.293Z,-23484.03
2023-02-22T18:39:33.799Z,-23484.66
2023-02-22T18:41:36.454Z,-23481.81
2023-02-22T18:43:39.119Z,-23481.31
2023-02-22T18:45:41.750Z,-23483.72
2023-02-22T18:47:45.535Z,-23483.84
2023-02-22T18:49:49.890Z,-23481.47
2023-02-22T18:51:52.608Z,-23480.22
2023-02-22T18:53:59.859Z,-23478.94
2023-02-22T18:56:04.863Z,-23479.25
2023-02-22T18:58:10.959Z,-23479.59
2023-02-22T19:00:16.324Z,-23477.38
2023-02-22T19:02:20.430Z,-23478.94
2023-02-22T19:04:25.025Z,-23477.03
2023-02-22T19:06:29.096Z,-23476.88
2023-02-22T19:08:33.091Z,-23472.91
2023-02-22T19:10:35.774Z,-23476.25
2023-02-22T19:12:38.432Z,-23475.94
2023-02-22T19:14:42.279Z,-23474.50
2023-02-22T19:16:46.480Z,-23474.19
2023-02-22T19:18:49.802Z,-23470.06
2023-02-22T19:20:56.895Z,-23463.41
2023-02-22T19:23:00.982Z,-23463.41
2023-02-22T19:25:04.492Z,-23467.84
2023-02-22T19:27:07.120Z,-23468.00
2023-02-22T19:29:10.712Z,-23468.00
2023-02-22T19:31:15.707Z,-23466.25
2023-02-22T19:33:18.560Z,-23467.22
2023-02-22T19:35:27.005Z,-23468.97
2023-02-22T19:37:35.380Z,-23470.38
2023-02-22T19:39:42.066Z,-23468.63
2023-02-22T19:41:44.576Z,-23468.00
2023-02-22T19:43:48.444Z,-23467.84
2023-02-22T19:45:51.175Z,-23468.81
2023-02-22T19:47:55.354Z,-23465.94
2023-02-22T19:49:59.787Z,-23462.13
2023-02-22T19:52:03.787Z,-23462.13
2023-02-22T19:54:08.566Z,-23463.09
2023-02-22T19:56:14.622Z,-23462.13
2023-02-22T19:58:17.368Z,-23464.03
2023-02-22T20:00:24.557Z,-23465.47
2023-02-22T20:02:27.594Z,-23464.19
2023-02-22T20:04:30.816Z,-23460.09
2023-02-22T20:06:35.595Z,-23460.88
2023-02-22T20:08:41.906Z,-23460.72
2023-02-22T20:10:44.832Z,-23463.88
2023-02-22T20:12:49.222Z,-23465.47
2023-02-22T20:14:51.953Z,-23467.06
2023-02-22T20:16:55.914Z,-23466.91
2023-02-22T20:18:58.641Z,-23468.00
2023-02-22T20:21:02.922Z,-23469.44
2023-02-22T20:23:06.008Z,-23470.06
2023-02-22T20:25:08.965Z,-23465.31
2023-02-22T20:27:12.876Z,-23464.03
2023-02-22T20:29:17.586Z,-23462.63
2023-02-22T20:31:21.557Z,-23466.91
2023-02-22T20:33:24.752Z,-23466.56
2023-02-22T20:35:27.834Z,-23467.38
2023-02-22T20:37:31.512Z,-23463.56
2023-02-22T20:39:34.272Z,-23463.09
2023-02-22T20:41:37.277Z,-23458.50
2023-02-22T20:43:40.625Z,-23456.13
2023-02-22T20:45:44.634Z,-23452.63
2023-02-22T20:47:47.796Z,-23454.22
2023-02-22T20:49:50.386Z,-23456.28
2023-02-22T20:51:53.044Z,-23456.13
2023-02-22T20:53:59.855Z,-23458.03
2023-02-22T20:56:03.237Z,-23460.41
2023-02-22T20:58:05.909Z,-23457.38
2023-02-22T21:00:10.495Z,-23448.19
2023-02-22T21:02:14.520Z,-23448.66
2023-02-22T21:04:17.932Z,-23449.44
2023-02-22T21:06:22.301Z,-23455.78
2023-02-22T21:08:24.912Z,-23461.19
2023-02-22T21:10:27.603Z,-23467.22
2023-02-22T21:12:30.330Z,-23462.78
2023-02-22T21:14:33.130Z,-23463.09
2023-02-22T21:16:37.817Z,-23462.78
2023-02-22T21:18:42.028Z,-23460.41
2023-02-22T21:20:44.633Z,-23457.06
2023-02-22T21:22:49.827Z,-23453.25
2023-02-22T21:24:53.164Z,-23453.25
2023-02-22T21:26:58.464Z,-23448.97
2023-02-22T21:29:03.806Z,-23447.06
2023-02-22T21:31:08.358Z,-23445.16
2023-02-22T21:33:11.573Z,-23445.66
2023-02-22T21:35:15.587Z,-23447.88
2023-02-22T21:37:18.193Z,-23446.59
2023-02-22T21:39:21.578Z,-23445.47
2023-02-22T21:41:27.650Z,-23446.28
2023-02-22T21:43:30.429Z,-23443.25
2023-02-22T21:45:33.055Z,-23435.16
2023-02-22T21:47:35.810Z,-23435.47
2023-02-22T21:49:38.724Z,-23431.03
2023-02-22T21:51:43.506Z,-23431.53
2023-02-22T21:53:47.002Z,-23432.78
2023-02-22T21:55:49.662Z,-23432.94
2023-02-22T21:57:52.498Z,-23428.50
2023-02-22T21:59:55.144Z,-23429.44
2023-02-22T22:01:57.845Z,-23428.66
2023-02-22T22:04:01.782Z,-23430.41
2023-02-22T22:06:09.817Z,-23430.88
2023-02-22T22:08:19.469Z,-23431.53
2023-02-22T22:10:27.310Z,-23433.41
2023-02-22T22:12:38.767Z,-23433.59
2023-02-22T22:14:41.917Z,-23433.91
2023-02-22T22:16:47.827Z,-23431.84
2023-02-22T22:18:50.470Z,-23433.41
2023-02-22T22:20:53.074Z,-23434.84
2023-02-22T22:22:55.666Z,-23434.84
2023-02-22T22:24:59.693Z,-23432.16
2023-02-22T22:27:04.905Z,-23434.69
2023-02-22T22:29:10.124Z,-23432.00
2023-02-22T22:31:14.499Z,-23432.00
2023-02-22T22:33:17.630Z,-23433.75
2023-02-22T22:35:20.365Z,-23432.63
2023-02-22T22:37:23.001Z,-23429.78
2023-02-22T22:39:26.351Z,-23433.09
2023-02-22T22:41:30.331Z,-23434.38
2023-02-22T22:43:33.702Z,-23436.44
2023-02-22T22:45:36.364Z,-23437.22
2023-02-22T22:47:39.262Z,-23424.06
2023-02-22T22:49:42.435Z,-23425.97
2023-02-22T22:51:47.400Z,-23424.06
2023-02-22T22:53:51.377Z,-23423.25
2023-02-22T22:55:54.014Z,-23425.63
2023-02-22T22:57:58.881Z,-23425.97
2023-02-22T23:00:21.511Z,-23426.91
2023-02-22T23:02:24.162Z,-23428.50
2023-02-22T23:04:26.875Z,-23430.72
2023-02-22T23:06:32.871Z,-23427.22
2023-02-22T23:08:43.208Z,-23430.72
2023-02-22T23:10:46.610Z,-23431.53
2023-02-22T23:12:49.254Z,-23433.28
2023-02-22T23:14:55.222Z,-23434.06
2023-02-22T23:17:03.088Z,-23436.13
2023-02-22T23:19:07.834Z,-23437.72
2023-02-22T23:21:10.868Z,-23439.94
2023-02-22T23:23:14.816Z,-23441.03
2023-02-22T23:25:19.750Z,-23442.47
2023-02-22T23:27:23.711Z,-23440.72
2023-02-22T23:29:27.288Z,-23444.38
2023-02-22T23:31:32.082Z,-23447.88
2023-02-22T23:33:34.722Z,-23445.66
2023-02-22T23:35:37.421Z,-23442.16
2023-02-22T23:37:40.145Z,-23440.09
2023-02-22T23:39:43.083Z,-23442.47
2023-02-22T23:41:45.766Z,-23444.06
2023-02-22T23:43:48.384Z,-23444.69
2023-02-22T23:45:51.048Z,-23445.16
2023-02-22T23:47:56.562Z,-23444.38
2023-02-22T23:49:59.304Z,-23449.13
2023-02-22T23:52:02.406Z,-23451.03
2023-02-22T23:54:06.068Z,-23447.88
2023-02-22T23:56:10.040Z,-23446.28
2023-02-22T23:58:13.279Z,-23448.81
